sensor_id;sensor_type;location;lat;lon;timestamp;temperature;humidity
25753;DHT22;13600;50.816;4.416;2022-12-24T00:01:08;11.60;99.90
25753;DHT22;13600;50.816;4.416;2022-12-24T00:03:36;11.60;99.90
25753;DHT22;13600;50.816;4.416;2022-12-24T00:06:15;11.60;99.90
25753;DHT22;13600;50.816;4.416;2022-12-24T00:08:41;11.60;99.90
25753;DHT22;13600;50.816;4.416;2022-12-24T00:11:07;11.60;99.90
25753;DHT22;13600;50.816;4.416;2022-12-24T00:13:33;11.60;99.90
25753;DHT22;13600;50.816;4.416;2022-12-24T00:15:59;11.50;99.90
25753;DHT22;13600;50.816;4.416;2022-12-24T00:18:27;11.50;99.90
25753;DHT22;13600;50.816;4.416;2022-12-24T00:20:53;11.50;99.90
25753;DHT22;13600;50.816;4.416;2022-12-24T00:23:19;11.50;99.90
25753;DHT22;13600;50.816;4.416;2022-12-24T00:25:45;11.60;99.90
25753;DHT22;13600;50.816;4.416;2022-12-24T00:28:12;11.80;99.90
25753;DHT22;13600;50.816;4.416;2022-12-24T00:30:39;11.80;99.90
25753;DHT22;13600;50.816;4.416;2022-12-24T00:33:05;11.70;99.90
25753;DHT22;13600;50.816;4.416;2022-12-24T00:35:33;11.70;99.90
25753;DHT22;13600;50.816;4.416;2022-12-24T00:37:59;11.70;99.90
25753;DHT22;13600;50.816;4.416;2022-12-24T00:40:24;11.70;99.90
25753;DHT22;13600;50.816;4.416;2022-12-24T00:42:51;11.60;99.90
25753;DHT22;13600;50.816;4.416;2022-12-24T00:45:17;11.50;99.90
25753;DHT22;13600;50.816;4.416;2022-12-24T00:47:42;11.50;99.90
25753;DHT22;13600;50.816;4.416;2022-12-24T00:50:08;11.50;99.90
25753;DHT22;13600;50.816;4.416;2022-12-24T00:52:34;11.50;99.90
25753;DHT22;13600;50.816;4.416;2022-12-24T00:55:00;11.60;99.90
25753;DHT22;13600;50.816;4.416;2022-12-24T00:57:26;11.60;99.90
25753;DHT22;13600;50.816;4.416;2022-12-24T00:59:52;11.60;99.90
25753;DHT22;13600;50.816;4.416;2022-12-24T01:02:18;11.60;99.90
25753;DHT22;13600;50.816;4.416;2022-12-24T01:04:43;11.50;99.90
25753;DHT22;13600;50.816;4.416;2022-12-24T01:07:28;11.40;99.90
25753;DHT22;13600;50.816;4.416;2022-12-24T01:09:53;11.50;99.90
25753;DHT22;13600;50.816;4.416;2022-12-24T01:12:19;11.40;99.90
25753;DHT22;13600;50.816;4.416;2022-12-24T01:14:44;11.30;99.90
25753;DHT22;13600;50.816;4.416;2022-12-24T01:17:10;11.30;99.90
25753;DHT22;13600;50.816;4.416;2022-12-24T01:19:36;11.30;99.90
25753;DHT22;13600;50.816;4.416;2022-12-24T01:22:01;11.20;99.90
25753;DHT22;13600;50.816;4.416;2022-12-24T01:24:27;11.20;99.90
25753;DHT22;13600;50.816;4.416;2022-12-24T01:26:53;11.20;99.90
25753;DHT22;13600;50.816;4.416;2022-12-24T01:29:18;11.10;99.90
25753;DHT22;13600;50.816;4.416;2022-12-24T01:31:44;11.00;99.90
25753;DHT22;13600;50.816;4.416;2022-12-24T01:34:09;11.00;99.90
25753;DHT22;13600;50.816;4.416;2022-12-24T01:36:35;10.90;99.90
25753;DHT22;13600;50.816;4.416;2022-12-24T01:39:01;11.00;99.90
25753;DHT22;13600;50.816;4.416;2022-12-24T01:41:28;11.00;99.90
25753;DHT22;13600;50.816;4.416;2022-12-24T01:44:32;11.30;99.90
25753;DHT22;13600;50.816;4.416;2022-12-24T01:49:33;11.20;99.90
25753;DHT22;13600;50.816;4.416;2022-12-24T01:52:05;11.10;99.90
25753;DHT22;13600;50.816;4.416;2022-12-24T01:54:40;11.10;99.90
25753;DHT22;13600;50.816;4.416;2022-12-24T01:57:15;11.10;99.90
25753;DHT22;13600;50.816;4.416;2022-12-24T01:59:43;11.20;99.90
25753;DHT22;13600;50.816;4.416;2022-12-24T02:02:10;11.20;99.90
25753;DHT22;13600;50.816;4.416;2022-12-24T02:07:24;11.20;99.90
25753;DHT22;13600;50.816;4.416;2022-12-24T02:09:53;11.20;99.90
25753;DHT22;13600;50.816;4.416;2022-12-24T02:12:21;11.20;99.90
25753;DHT22;13600;50.816;4.416;2022-12-24T02:14:46;11.10;99.90
25753;DHT22;13600;50.816;4.416;2022-12-24T02:28:59;11.30;99.90
25753;DHT22;13600;50.816;4.416;2022-12-24T02:31:49;11.30;99.90
25753;DHT22;13600;50.816;4.416;2022-12-24T02:34:29;11.30;99.90
25753;DHT22;13600;50.816;4.416;2022-12-24T02:37:19;11.30;99.90
25753;DHT22;13600;50.816;4.416;2022-12-24T02:42:21;11.20;99.90
25753;DHT22;13600;50.816;4.416;2022-12-24T02:45:00;11.10;99.90
25753;DHT22;13600;50.816;4.416;2022-12-24T02:47:27;11.20;99.90
25753;DHT22;13600;50.816;4.416;2022-12-24T02:49:53;11.20;99.90
25753;DHT22;13600;50.816;4.416;2022-12-24T02:54:53;11.30;99.90
25753;DHT22;13600;50.816;4.416;2022-12-24T03:00:07;11.40;99.90
25753;DHT22;13600;50.816;4.416;2022-12-24T03:03:11;11.30;99.90
25753;DHT22;13600;50.816;4.416;2022-12-24T03:13:29;11.30;99.90
25753;DHT22;13600;50.816;4.416;2022-12-24T03:15:55;11.30;99.90
25753;DHT22;13600;50.816;4.416;2022-12-24T03:18:23;11.30;99.90
25753;DHT22;13600;50.816;4.416;2022-12-24T03:23:22;11.30;99.90
25753;DHT22;13600;50.816;4.416;2022-12-24T03:25:49;11.20;99.90
25753;DHT22;13600;50.816;4.416;2022-12-24T03:28:16;11.10;99.90
25753;DHT22;13600;50.816;4.416;2022-12-24T03:30:45;11.10;99.90
25753;DHT22;13600;50.816;4.416;2022-12-24T03:33:12;11.10;99.90
25753;DHT22;13600;50.816;4.416;2022-12-24T03:35:38;11.10;99.90
25753;DHT22;13600;50.816;4.416;2022-12-24T03:38:03;11.20;99.90
25753;DHT22;13600;50.816;4.416;2022-12-24T03:40:29;11.20;99.90
25753;DHT22;13600;50.816;4.416;2022-12-24T03:42:55;11.20;99.90
25753;DHT22;13600;50.816;4.416;2022-12-24T03:45:20;11.20;99.90
25753;DHT22;13600;50.816;4.416;2022-12-24T03:47:46;11.20;99.90
25753;DHT22;13600;50.816;4.416;2022-12-24T03:50:12;11.30;99.90
25753;DHT22;13600;50.816;4.416;2022-12-24T03:52:38;11.30;99.90
25753;DHT22;13600;50.816;4.416;2022-12-24T03:55:03;11.20;99.90
25753;DHT22;13600;50.816;4.416;2022-12-24T03:57:29;11.20;99.90
25753;DHT22;13600;50.816;4.416;2022-12-24T03:59:55;11.30;99.90
25753;DHT22;13600;50.816;4.416;2022-12-24T04:02:20;11.20;99.90
25753;DHT22;13600;50.816;4.416;2022-12-24T04:04:46;11.20;99.90
25753;DHT22;13600;50.816;4.416;2022-12-24T04:07:11;11.20;99.90
25753;DHT22;13600;50.816;4.416;2022-12-24T04:09:37;11.20;99.90
25753;DHT22;13600;50.816;4.416;2022-12-24T04:12:03;11.30;99.90
25753;DHT22;13600;50.816;4.416;2022-12-24T04:14:29;11.40;99.90
25753;DHT22;13600;50.816;4.416;2022-12-24T04:16:54;11.30;99.90
25753;DHT22;13600;50.816;4.416;2022-12-24T04:19:20;11.30;99.90
25753;DHT22;13600;50.816;4.416;2022-12-24T04:21:46;11.30;99.90
25753;DHT22;13600;50.816;4.416;2022-12-24T04:24:11;11.20;99.90
25753;DHT22;13600;50.816;4.416;2022-12-24T04:26:37;11.20;99.90
25753;DHT22;13600;50.816;4.416;2022-12-24T04:29:02;11.20;99.90
25753;DHT22;13600;50.816;4.416;2022-12-24T04:31:28;11.20;99.90
25753;DHT22;13600;50.816;4.416;2022-12-24T04:33:53;11.20;99.90
25753;DHT22;13600;50.816;4.416;2022-12-24T04:36:19;11.20;99.90
25753;DHT22;13600;50.816;4.416;2022-12-24T04:38:46;11.20;99.90
25753;DHT22;13600;50.816;4.416;2022-12-24T04:41:15;11.20;99.90
25753;DHT22;13600;50.816;4.416;2022-12-24T04:43:41;11.20;99.90
25753;DHT22;13600;50.816;4.416;2022-12-24T04:46:09;11.20;99.90
25753;DHT22;13600;50.816;4.416;2022-12-24T04:48:36;11.10;99.90
25753;DHT22;13600;50.816;4.416;2022-12-24T04:51:03;11.10;99.90
25753;DHT22;13600;50.816;4.416;2022-12-24T04:53:30;11.00;99.90
25753;DHT22;13600;50.816;4.416;2022-12-24T04:55:56;11.00;99.90
25753;DHT22;13600;50.816;4.416;2022-12-24T04:58:23;11.00;99.90
25753;DHT22;13600;50.816;4.416;2022-12-24T05:00:49;11.00;99.90
25753;DHT22;13600;50.816;4.416;2022-12-24T05:03:14;11.10;99.90
25753;DHT22;13600;50.816;4.416;2022-12-24T05:05:40;11.00;99.90
25753;DHT22;13600;50.816;4.416;2022-12-24T05:08:05;11.00;99.90
25753;DHT22;13600;50.816;4.416;2022-12-24T05:10:31;11.00;99.90
25753;DHT22;13600;50.816;4.416;2022-12-24T05:12:56;10.90;99.90
25753;DHT22;13600;50.816;4.416;2022-12-24T05:15:24;10.80;99.90
25753;DHT22;13600;50.816;4.416;2022-12-24T05:17:49;10.70;99.90
25753;DHT22;13600;50.816;4.416;2022-12-24T05:20:15;10.80;99.90
25753;DHT22;13600;50.816;4.416;2022-12-24T05:22:40;10.70;99.90
25753;DHT22;13600;50.816;4.416;2022-12-24T05:25:31;10.70;99.90
25753;DHT22;13600;50.816;4.416;2022-12-24T05:28:27;10.80;99.90
25753;DHT22;13600;50.816;4.416;2022-12-24T05:30:53;10.70;99.90
25753;DHT22;13600;50.816;4.416;2022-12-24T05:33:18;10.70;99.90
25753;DHT22;13600;50.816;4.416;2022-12-24T05:35:44;10.80;99.90
25753;DHT22;13600;50.816;4.416;2022-12-24T05:38:09;10.80;99.90
25753;DHT22;13600;50.816;4.416;2022-12-24T05:40:35;10.90;99.90
25753;DHT22;13600;50.816;4.416;2022-12-24T05:43:00;10.80;99.90
25753;DHT22;13600;50.816;4.416;2022-12-24T05:45:26;10.80;99.90
25753;DHT22;13600;50.816;4.416;2022-12-24T05:47:52;10.80;99.90
25753;DHT22;13600;50.816;4.416;2022-12-24T05:50:18;10.70;99.90
25753;DHT22;13600;50.816;4.416;2022-12-24T05:52:45;10.90;99.90
25753;DHT22;13600;50.816;4.416;2022-12-24T05:55:10;10.80;99.90
25753;DHT22;13600;50.816;4.416;2022-12-24T05:57:37;10.80;99.90
25753;DHT22;13600;50.816;4.416;2022-12-24T06:00:03;11.00;99.90
25753;DHT22;13600;50.816;4.416;2022-12-24T06:02:29;11.10;99.90
25753;DHT22;13600;50.816;4.416;2022-12-24T06:04:55;11.20;99.90
25753;DHT22;13600;50.816;4.416;2022-12-24T06:07:20;11.20;99.90
25753;DHT22;13600;50.816;4.416;2022-12-24T06:09:46;11.20;99.90
25753;DHT22;13600;50.816;4.416;2022-12-24T06:12:11;11.10;99.90
25753;DHT22;13600;50.816;4.416;2022-12-24T06:14:37;11.20;99.90
25753;DHT22;13600;50.816;4.416;2022-12-24T06:17:02;11.20;99.90
25753;DHT22;13600;50.816;4.416;2022-12-24T06:19:28;11.20;99.90
25753;DHT22;13600;50.816;4.416;2022-12-24T06:21:54;11.20;99.90
25753;DHT22;13600;50.816;4.416;2022-12-24T06:24:19;11.20;99.90
25753;DHT22;13600;50.816;4.416;2022-12-24T06:26:45;11.10;99.90
25753;DHT22;13600;50.816;4.416;2022-12-24T06:29:10;11.10;99.90
25753;DHT22;13600;50.816;4.416;2022-12-24T06:31:36;11.00;99.90
25753;DHT22;13600;50.816;4.416;2022-12-24T06:34:02;11.00;99.90
25753;DHT22;13600;50.816;4.416;2022-12-24T06:36:27;10.90;99.90
25753;DHT22;13600;50.816;4.416;2022-12-24T06:38:54;10.90;99.90
25753;DHT22;13600;50.816;4.416;2022-12-24T06:41:19;11.00;99.90
25753;DHT22;13600;50.816;4.416;2022-12-24T06:43:47;10.90;99.90
25753;DHT22;13600;50.816;4.416;2022-12-24T06:46:13;10.90;99.90
25753;DHT22;13600;50.816;4.416;2022-12-24T06:48:39;10.90;99.90
25753;DHT22;13600;50.816;4.416;2022-12-24T06:51:05;10.90;99.90
25753;DHT22;13600;50.816;4.416;2022-12-24T06:53:31;10.80;99.90
25753;DHT22;13600;50.816;4.416;2022-12-24T06:56:01;10.90;99.90
25753;DHT22;13600;50.816;4.416;2022-12-24T06:58:27;11.00;99.90
25753;DHT22;13600;50.816;4.416;2022-12-24T07:00:53;11.00;99.90
25753;DHT22;13600;50.816;4.416;2022-12-24T07:03:18;11.00;99.90
25753;DHT22;13600;50.816;4.416;2022-12-24T07:05:44;11.00;99.90
25753;DHT22;13600;50.816;4.416;2022-12-24T07:08:09;11.00;99.90
25753;DHT22;13600;50.816;4.416;2022-12-24T07:10:35;11.00;99.90
25753;DHT22;13600;50.816;4.416;2022-12-24T07:13:00;11.00;99.90
25753;DHT22;13600;50.816;4.416;2022-12-24T07:15:26;11.00;99.90
25753;DHT22;13600;50.816;4.416;2022-12-24T07:17:51;11.00;99.90
25753;DHT22;13600;50.816;4.416;2022-12-24T07:20:18;11.00;99.90
25753;DHT22;13600;50.816;4.416;2022-12-24T07:22:44;11.00;99.90
25753;DHT22;13600;50.816;4.416;2022-12-24T07:25:09;11.00;99.90
25753;DHT22;13600;50.816;4.416;2022-12-24T07:27:35;11.10;99.90
25753;DHT22;13600;50.816;4.416;2022-12-24T07:30:01;11.10;99.90
25753;DHT22;13600;50.816;4.416;2022-12-24T07:32:27;11.10;99.90
25753;DHT22;13600;50.816;4.416;2022-12-24T07:34:53;11.10;99.90
25753;DHT22;13600;50.816;4.416;2022-12-24T07:37:18;11.00;99.90
25753;DHT22;13600;50.816;4.416;2022-12-24T07:39:44;10.90;99.90
25753;DHT22;13600;50.816;4.416;2022-12-24T07:42:09;10.90;99.90
25753;DHT22;13600;50.816;4.416;2022-12-24T07:44:36;10.90;99.90
25753;DHT22;13600;50.816;4.416;2022-12-24T07:47:03;10.90;99.90
25753;DHT22;13600;50.816;4.416;2022-12-24T07:49:29;10.90;99.90
25753;DHT22;13600;50.816;4.416;2022-12-24T07:51:54;10.90;99.90
25753;DHT22;13600;50.816;4.416;2022-12-24T07:54:21;10.90;99.90
25753;DHT22;13600;50.816;4.416;2022-12-24T07:56:48;10.90;99.90
25753;DHT22;13600;50.816;4.416;2022-12-24T07:59:13;10.90;99.90
25753;DHT22;13600;50.816;4.416;2022-12-24T08:01:39;10.90;99.90
25753;DHT22;13600;50.816;4.416;2022-12-24T08:04:05;10.80;99.90
25753;DHT22;13600;50.816;4.416;2022-12-24T08:06:30;10.90;99.90
25753;DHT22;13600;50.816;4.416;2022-12-24T08:08:56;10.90;99.90
25753;DHT22;13600;50.816;4.416;2022-12-24T08:11:22;10.90;99.90
25753;DHT22;13600;50.816;4.416;2022-12-24T08:13:47;11.10;99.90
25753;DHT22;13600;50.816;4.416;2022-12-24T08:16:13;11.00;99.90
25753;DHT22;13600;50.816;4.416;2022-12-24T08:18:38;11.00;99.90
25753;DHT22;13600;50.816;4.416;2022-12-24T08:21:08;11.00;99.90
25753;DHT22;13600;50.816;4.416;2022-12-24T08:23:34;11.00;99.90
25753;DHT22;13600;50.816;4.416;2022-12-24T08:26:00;11.10;99.90
25753;DHT22;13600;50.816;4.416;2022-12-24T08:28:26;11.10;99.90
25753;DHT22;13600;50.816;4.416;2022-12-24T08:30:51;11.10;99.90
25753;DHT22;13600;50.816;4.416;2022-12-24T08:33:18;11.20;99.90
25753;DHT22;13600;50.816;4.416;2022-12-24T08:35:51;11.30;99.90
25753;DHT22;13600;50.816;4.416;2022-12-24T08:38:17;11.40;99.90
25753;DHT22;13600;50.816;4.416;2022-12-24T08:40:43;11.30;99.90
25753;DHT22;13600;50.816;4.416;2022-12-24T08:43:11;11.30;99.90
25753;DHT22;13600;50.816;4.416;2022-12-24T08:45:38;11.40;99.90
25753;DHT22;13600;50.816;4.416;2022-12-24T08:48:05;11.50;99.90
25753;DHT22;13600;50.816;4.416;2022-12-24T08:50:30;11.40;99.90
25753;DHT22;13600;50.816;4.416;2022-12-24T08:52:56;11.50;99.90
25753;DHT22;13600;50.816;4.416;2022-12-24T08:55:21;11.50;99.90
25753;DHT22;13600;50.816;4.416;2022-12-24T08:57:47;11.60;99.90
25753;DHT22;13600;50.816;4.416;2022-12-24T09:00:13;11.70;99.90
25753;DHT22;13600;50.816;4.416;2022-12-24T09:02:39;11.90;99.90
25753;DHT22;13600;50.816;4.416;2022-12-24T09:05:05;11.90;99.90
25753;DHT22;13600;50.816;4.416;2022-12-24T09:07:30;12.00;99.90
25753;DHT22;13600;50.816;4.416;2022-12-24T09:09:56;12.00;99.90
25753;DHT22;13600;50.816;4.416;2022-12-24T09:12:21;12.10;99.90
25753;DHT22;13600;50.816;4.416;2022-12-24T09:14:50;12.10;99.90
25753;DHT22;13600;50.816;4.416;2022-12-24T09:17:16;12.10;99.90
25753;DHT22;13600;50.816;4.416;2022-12-24T09:19:41;12.00;99.90
25753;DHT22;13600;50.816;4.416;2022-12-24T09:22:07;12.10;99.90
25753;DHT22;13600;50.816;4.416;2022-12-24T09:24:34;12.20;99.90
25753;DHT22;13600;50.816;4.416;2022-12-24T09:27:00;12.40;99.90
25753;DHT22;13600;50.816;4.416;2022-12-24T09:29:27;12.40;99.90
25753;DHT22;13600;50.816;4.416;2022-12-24T09:31:53;12.40;99.90
25753;DHT22;13600;50.816;4.416;2022-12-24T09:34:19;12.50;99.90
25753;DHT22;13600;50.816;4.416;2022-12-24T09:36:45;12.50;99.90
25753;DHT22;13600;50.816;4.416;2022-12-24T09:39:11;12.50;99.90
25753;DHT22;13600;50.816;4.416;2022-12-24T09:44:43;12.60;99.90
25753;DHT22;13600;50.816;4.416;2022-12-24T09:49:46;12.50;99.90
25753;DHT22;13600;50.816;4.416;2022-12-24T09:52:22;12.50;99.90
25753;DHT22;13600;50.816;4.416;2022-12-24T09:55:03;12.40;99.90
25753;DHT22;13600;50.816;4.416;2022-12-24T09:57:34;12.40;99.90
25753;DHT22;13600;50.816;4.416;2022-12-24T10:00:01;12.40;99.90
25753;DHT22;13600;50.816;4.416;2022-12-24T10:02:27;12.40;99.90
25753;DHT22;13600;50.816;4.416;2022-12-24T10:04:53;12.60;99.90
25753;DHT22;13600;50.816;4.416;2022-12-24T10:13:07;12.60;99.90
25753;DHT22;13600;50.816;4.416;2022-12-24T10:15:45;12.60;99.90
25753;DHT22;13600;50.816;4.416;2022-12-24T10:23:59;12.90;99.90
25753;DHT22;13600;50.816;4.416;2022-12-24T10:29:10;12.70;99.90
25753;DHT22;13600;50.816;4.416;2022-12-24T10:31:40;12.70;99.90
25753;DHT22;13600;50.816;4.416;2022-12-24T10:34:16;12.70;99.90
25753;DHT22;13600;50.816;4.416;2022-12-24T10:36:43;12.60;99.90
25753;DHT22;13600;50.816;4.416;2022-12-24T10:39:19;12.60;99.90
25753;DHT22;13600;50.816;4.416;2022-12-24T10:41:47;12.80;99.90
25753;DHT22;13600;50.816;4.416;2022-12-24T10:44:17;13.00;99.90
25753;DHT22;13600;50.816;4.416;2022-12-24T10:46:43;13.00;99.90
25753;DHT22;13600;50.816;4.416;2022-12-24T10:49:36;13.10;99.90
25753;DHT22;13600;50.816;4.416;2022-12-24T10:52:08;13.30;99.90
25753;DHT22;13600;50.816;4.416;2022-12-24T10:54:35;13.40;99.90
25753;DHT22;13600;50.816;4.416;2022-12-24T10:57:05;13.20;99.90
25753;DHT22;13600;50.816;4.416;2022-12-24T10:59:50;13.20;99.90
25753;DHT22;13600;50.816;4.416;2022-12-24T11:02:32;13.10;99.90
25753;DHT22;13600;50.816;4.416;2022-12-24T11:04:59;13.00;99.90
25753;DHT22;13600;50.816;4.416;2022-12-24T11:07:25;12.90;99.90
25753;DHT22;13600;50.816;4.416;2022-12-24T11:12:25;13.10;99.90
25753;DHT22;13600;50.816;4.416;2022-12-24T11:15:06;13.30;99.90
25753;DHT22;13600;50.816;4.416;2022-12-24T11:17:40;13.50;99.90
25753;DHT22;13600;50.816;4.416;2022-12-24T11:20:15;13.70;99.90
25753;DHT22;13600;50.816;4.416;2022-12-24T11:22:48;13.80;99.90
25753;DHT22;13600;50.816;4.416;2022-12-24T11:25:26;13.80;99.90
25753;DHT22;13600;50.816;4.416;2022-12-24T11:27:54;13.70;99.90
25753;DHT22;13600;50.816;4.416;2022-12-24T11:30:24;13.60;99.90
25753;DHT22;13600;50.816;4.416;2022-12-24T11:33:15;13.50;99.90
25753;DHT22;13600;50.816;4.416;2022-12-24T11:35:45;13.30;99.90
25753;DHT22;13600;50.816;4.416;2022-12-24T11:38:18;13.10;99.90
25753;DHT22;13600;50.816;4.416;2022-12-24T11:40:47;13.10;99.90
25753;DHT22;13600;50.816;4.416;2022-12-24T11:43:20;13.10;99.90
25753;DHT22;13600;50.816;4.416;2022-12-24T11:45:54;13.40;99.90
25753;DHT22;13600;50.816;4.416;2022-12-24T11:48:30;13.70;99.90
25753;DHT22;13600;50.816;4.416;2022-12-24T11:51:03;13.80;99.90
25753;DHT22;13600;50.816;4.416;2022-12-24T11:54:11;13.90;99.90
25753;DHT22;13600;50.816;4.416;2022-12-24T11:56:44;13.90;99.90
25753;DHT22;13600;50.816;4.416;2022-12-24T11:59:45;14.10;99.90
25753;DHT22;13600;50.816;4.416;2022-12-24T12:05:02;14.40;99.90
25753;DHT22;13600;50.816;4.416;2022-12-24T12:07:36;14.40;99.90
25753;DHT22;13600;50.816;4.416;2022-12-24T12:12:31;14.30;99.90
25753;DHT22;13600;50.816;4.416;2022-12-24T12:15:05;14.30;99.90
25753;DHT22;13600;50.816;4.416;2022-12-24T12:17:49;14.40;99.90
25753;DHT22;13600;50.816;4.416;2022-12-24T12:23:01;14.10;99.90
25753;DHT22;13600;50.816;4.416;2022-12-24T12:25:49;14.00;99.90
25753;DHT22;13600;50.816;4.416;2022-12-24T12:31:25;14.00;99.90
25753;DHT22;13600;50.816;4.416;2022-12-24T12:33:58;13.80;99.90
25753;DHT22;13600;50.816;4.416;2022-12-24T12:36:35;13.60;99.90
25753;DHT22;13600;50.816;4.416;2022-12-24T12:39:03;13.50;99.90
25753;DHT22;13600;50.816;4.416;2022-12-24T12:52:43;13.90;99.90
25753;DHT22;13600;50.816;4.416;2022-12-24T12:55:35;14.00;99.90
25753;DHT22;13600;50.816;4.416;2022-12-24T12:58:22;14.00;99.90
25753;DHT22;13600;50.816;4.416;2022-12-24T13:00:52;14.30;99.90
25753;DHT22;13600;50.816;4.416;2022-12-24T13:06:06;14.50;99.90
25753;DHT22;13600;50.816;4.416;2022-12-24T13:08:58;14.40;99.90
25753;DHT22;13600;50.816;4.416;2022-12-24T13:14:24;14.60;99.90
25753;DHT22;13600;50.816;4.416;2022-12-24T13:22:25;14.50;99.90
25753;DHT22;13600;50.816;4.416;2022-12-24T13:24:52;14.40;99.90
25753;DHT22;13600;50.816;4.416;2022-12-24T13:27:29;14.40;99.90
25753;DHT22;13600;50.816;4.416;2022-12-24T13:30:05;14.40;99.90
25753;DHT22;13600;50.816;4.416;2022-12-24T13:32:48;14.40;99.90
25753;DHT22;13600;50.816;4.416;2022-12-24T13:37:43;14.40;99.90
25753;DHT22;13600;50.816;4.416;2022-12-24T13:48:01;14.40;99.90
25753;DHT22;13600;50.816;4.416;2022-12-24T13:50:36;14.30;99.90
25753;DHT22;13600;50.816;4.416;2022-12-24T13:53:03;14.40;99.90
25753;DHT22;13600;50.816;4.416;2022-12-24T13:55:30;14.40;99.90
25753;DHT22;13600;50.816;4.416;2022-12-24T13:58:03;14.30;99.90
25753;DHT22;13600;50.816;4.416;2022-12-24T14:03:01;14.40;99.90
25753;DHT22;13600;50.816;4.416;2022-12-24T14:11:01;14.20;99.90
25753;DHT22;13600;50.816;4.416;2022-12-24T14:16:08;14.10;99.90
25753;DHT22;13600;50.816;4.416;2022-12-24T14:18:41;14.00;99.90
25753;DHT22;13600;50.816;4.416;2022-12-24T14:21:16;14.10;99.90
25753;DHT22;13600;50.816;4.416;2022-12-24T14:24:02;14.20;99.90
25753;DHT22;13600;50.816;4.416;2022-12-24T14:26:31;14.20;99.90
25753;DHT22;13600;50.816;4.416;2022-12-24T14:29:02;14.30;99.90
25753;DHT22;13600;50.816;4.416;2022-12-24T14:31:29;14.30;99.90
25753;DHT22;13600;50.816;4.416;2022-12-24T14:34:06;14.10;99.90
25753;DHT22;13600;50.816;4.416;2022-12-24T14:36:32;14.10;99.90
25753;DHT22;13600;50.816;4.416;2022-12-24T14:38:59;13.90;99.90
25753;DHT22;13600;50.816;4.416;2022-12-24T14:41:46;13.90;99.90
25753;DHT22;13600;50.816;4.416;2022-12-24T14:44:35;13.70;99.90
25753;DHT22;13600;50.816;4.416;2022-12-24T14:47:34;13.80;99.90
25753;DHT22;13600;50.816;4.416;2022-12-24T14:55:38;13.60;99.90
25753;DHT22;13600;50.816;4.416;2022-12-24T14:58:31;13.70;99.90
25753;DHT22;13600;50.816;4.416;2022-12-24T15:01:00;13.60;99.90
25753;DHT22;13600;50.816;4.416;2022-12-24T15:03:30;13.50;99.90
25753;DHT22;13600;50.816;4.416;2022-12-24T15:06:02;13.40;99.90
25753;DHT22;13600;50.816;4.416;2022-12-24T15:08:36;13.40;99.90
25753;DHT22;13600;50.816;4.416;2022-12-24T15:11:05;13.30;99.90
25753;DHT22;13600;50.816;4.416;2022-12-24T15:13:39;13.30;99.90
25753;DHT22;13600;50.816;4.416;2022-12-24T15:16:11;13.20;99.90
25753;DHT22;13600;50.816;4.416;2022-12-24T15:18:42;13.20;99.90
25753;DHT22;13600;50.816;4.416;2022-12-24T15:21:24;13.20;99.90
25753;DHT22;13600;50.816;4.416;2022-12-24T15:23:51;13.30;99.90
25753;DHT22;13600;50.816;4.416;2022-12-24T15:26:43;13.40;99.90
25753;DHT22;13600;50.816;4.416;2022-12-24T15:29:29;13.50;99.90
25753;DHT22;13600;50.816;4.416;2022-12-24T15:31:59;13.60;99.90
25753;DHT22;13600;50.816;4.416;2022-12-24T15:34:34;13.60;99.90
25753;DHT22;13600;50.816;4.416;2022-12-24T15:39:41;13.60;99.90
25753;DHT22;13600;50.816;4.416;2022-12-24T15:42:09;13.40;99.90
25753;DHT22;13600;50.816;4.416;2022-12-24T15:44:40;13.30;99.90
25753;DHT22;13600;50.816;4.416;2022-12-24T15:47:14;13.20;99.90
25753;DHT22;13600;50.816;4.416;2022-12-24T15:49:46;13.20;99.90
25753;DHT22;13600;50.816;4.416;2022-12-24T15:52:13;13.30;99.90
25753;DHT22;13600;50.816;4.416;2022-12-24T15:54:47;13.20;99.90
25753;DHT22;13600;50.816;4.416;2022-12-24T15:57:29;13.20;99.90
25753;DHT22;13600;50.816;4.416;2022-12-24T15:59:56;13.10;99.90
25753;DHT22;13600;50.816;4.416;2022-12-24T16:02:39;13.10;99.90
25753;DHT22;13600;50.816;4.416;2022-12-24T16:08:18;13.20;99.90
25753;DHT22;13600;50.816;4.416;2022-12-24T16:13:30;13.00;99.90
25753;DHT22;13600;50.816;4.416;2022-12-24T16:18:34;12.80;99.90
25753;DHT22;13600;50.816;4.416;2022-12-24T16:21:01;12.90;99.90
25753;DHT22;13600;50.816;4.416;2022-12-24T16:23:46;12.90;99.90
25753;DHT22;13600;50.816;4.416;2022-12-24T16:26:12;13.10;99.90
25753;DHT22;13600;50.816;4.416;2022-12-24T16:28:38;13.10;99.90
25753;DHT22;13600;50.816;4.416;2022-12-24T16:31:05;13.10;99.90
25753;DHT22;13600;50.816;4.416;2022-12-24T16:33:30;13.20;99.90
25753;DHT22;13600;50.816;4.416;2022-12-24T16:35:56;13.30;99.90
25753;DHT22;13600;50.816;4.416;2022-12-24T16:38:22;13.10;99.90
25753;DHT22;13600;50.816;4.416;2022-12-24T16:40:48;12.90;99.90
25753;DHT22;13600;50.816;4.416;2022-12-24T16:43:14;12.80;99.90
25753;DHT22;13600;50.816;4.416;2022-12-24T16:46:03;12.60;99.90
25753;DHT22;13600;50.816;4.416;2022-12-24T16:48:30;12.70;99.90
25753;DHT22;13600;50.816;4.416;2022-12-24T16:50:58;12.60;99.90
25753;DHT22;13600;50.816;4.416;2022-12-24T16:53:23;12.40;99.90
25753;DHT22;13600;50.816;4.416;2022-12-24T16:55:49;12.30;99.90
25753;DHT22;13600;50.816;4.416;2022-12-24T16:58:16;12.30;99.90
25753;DHT22;13600;50.816;4.416;2022-12-24T17:00:43;12.30;99.90
25753;DHT22;13600;50.816;4.416;2022-12-24T17:03:09;12.20;99.90
25753;DHT22;13600;50.816;4.416;2022-12-24T17:05:42;12.00;99.90
25753;DHT22;13600;50.816;4.416;2022-12-24T17:08:08;12.00;99.90
25753;DHT22;13600;50.816;4.416;2022-12-24T17:10:34;12.00;99.90
25753;DHT22;13600;50.816;4.416;2022-12-24T17:13:00;12.10;99.90
25753;DHT22;13600;50.816;4.416;2022-12-24T17:15:26;12.00;99.90
25753;DHT22;13600;50.816;4.416;2022-12-24T17:17:51;11.80;99.90
25753;DHT22;13600;50.816;4.416;2022-12-24T17:20:17;11.90;99.90
25753;DHT22;13600;50.816;4.416;2022-12-24T17:22:42;12.00;99.90
25753;DHT22;13600;50.816;4.416;2022-12-24T17:25:10;12.20;99.90
25753;DHT22;13600;50.816;4.416;2022-12-24T17:27:36;12.30;99.90
25753;DHT22;13600;50.816;4.416;2022-12-24T17:30:02;12.20;99.90
25753;DHT22;13600;50.816;4.416;2022-12-24T17:32:28;12.30;99.90
25753;DHT22;13600;50.816;4.416;2022-12-24T17:34:53;12.30;99.90
25753;DHT22;13600;50.816;4.416;2022-12-24T17:37:19;12.30;99.90
25753;DHT22;13600;50.816;4.416;2022-12-24T17:39:44;12.10;99.90
25753;DHT22;13600;50.816;4.416;2022-12-24T17:42:10;12.00;99.90
25753;DHT22;13600;50.816;4.416;2022-12-24T17:44:35;11.80;99.90
25753;DHT22;13600;50.816;4.416;2022-12-24T17:47:01;11.90;99.90
25753;DHT22;13600;50.816;4.416;2022-12-24T17:49:29;11.90;99.90
25753;DHT22;13600;50.816;4.416;2022-12-24T17:51:56;11.80;99.90